Time;durP1;ratioP1;P1;durP2;ratioP2;P2;SDS_P1;SDS_P2;PMS_P1;PMS_P2;Temp;Humidity;BMP_temperature;BMP_pressure;BME280_temperature;BME280_humidity;BME280_pressure;Samples;Min_cycle;Max_cycle;Signal;HPM_P1;HPM_P2
2022/10/02 00:00:18;;;;;;;4.60;2.13;;;;;;;;;;5096173;28;20206;-79
2022/10/02 00:02:49;;;;;;;4.50;2.00;;;;;;;;;;5095711;28;20700;-79
2022/10/02 00:05:20;;;;;;;6.83;2.07;;;;;;;;;;5095971;28;20221;-80
2022/10/02 00:07:50;;;;;;;3.33;1.73;;;;;;;;;;5084190;28;20207;-79
2022/10/02 00:10:22;;;;;;;6.73;2.20;;;;;;;;;;5075032;28;20234;-79
2022/10/02 00:12:52;;;;;;;5.37;1.73;;;;;;;;;;5086592;28;20250;-80
2022/10/02 00:15:22;;;;;;;5.13;1.90;;;;;;;;;;5081594;28;20198;-78
2022/10/02 00:17:52;;;;;;;5.07;1.80;;;;;;;;;;5087703;28;20588;-79
2022/10/02 00:20:25;;;;;;;7.30;2.37;;;;;;;;;;5096381;28;20255;-80
2022/10/02 00:22:59;;;;;;;6.77;2.07;;;;;;;;;;5079616;28;20253;-80
2022/10/02 00:25:32;;;;;;;6.80;2.50;;;;;;;;;;5079442;28;20202;-80
2022/10/02 00:28:07;;;;;;;5.30;2.13;;;;;;;;;;5096805;28;20218;-80
2022/10/02 00:30:42;;;;;;;5.63;2.20;;;;;;;;;;5096891;28;20201;-80
2022/10/02 00:33:15;;;;;;;7.20;2.00;;;;;;;;;;5095670;28;20225;-80
2022/10/02 00:35:57;;;;;;;7.00;2.47;;;;;;;;;;5095866;28;20244;-79
2022/10/02 00:38:32;;;;;;;6.33;2.50;;;;;;;;;;5096019;28;20179;-80
2022/10/02 00:41:10;;;;;;;7.13;2.17;;;;;;;;;;5095726;28;20186;-79
2022/10/02 00:43:41;;;;;;;8.03;2.43;;;;;;;;;;5095433;28;20256;-80
2022/10/02 00:46:17;;;;;;;7.40;2.57;;;;;;;;;;5095238;28;20225;-79
2022/10/02 00:49:00;;;;;;;8.80;2.80;;;;;;;;;;5095010;28;20222;-79
2022/10/02 00:51:36;;;;;;;7.03;2.63;;;;;;;;;;5095439;28;20292;-79
2022/10/02 00:54:14;;;;;;;10.03;2.87;;;;;;;;;;5094434;28;20314;-79
2022/10/02 00:56:46;;;;;;;10.73;2.77;;;;;;;;;;5095786;28;20675;-79
2022/10/02 00:59:25;;;;;;;8.17;2.93;;;;;;;;;;5095426;28;20216;-79
2022/10/02 01:01:56;;;;;;;12.17;3.13;;;;;;;;;;5094269;28;20232;-78
2022/10/02 01:04:29;;;;;;;6.20;2.67;;;;;;;;;;5095149;28;20686;-79
2022/10/02 01:06:59;;;;;;;10.30;3.20;;;;;;;;;;5095085;28;20186;-80
2022/10/02 01:09:28;;;;;;;13.63;3.57;;;;;;;;;;5094418;28;20202;-79
2022/10/02 01:11:57;;;;;;;12.60;3.10;;;;;;;;;;5094619;28;20205;-79
2022/10/02 01:14:32;;;;;;;12.17;3.33;;;;;;;;;;5094222;28;20259;-78
2022/10/02 01:17:01;;;;;;;9.53;3.30;;;;;;;;;;5094253;28;20231;-78
2022/10/02 01:19:36;;;;;;;9.93;3.27;;;;;;;;;;5089627;28;20265;-80
2022/10/02 01:22:10;;;;;;;10.70;3.30;;;;;;;;;;5074234;28;20293;-80
2022/10/02 01:24:47;;;;;;;9.50;3.50;;;;;;;;;;5073901;28;20653;-80
2022/10/02 01:27:15;;;;;;;11.37;3.87;;;;;;;;;;5074219;28;20237;-80
2022/10/02 01:29:45;;;;;;;12.37;3.77;;;;;;;;;;5073819;28;20272;-79
2022/10/02 01:32:13;;;;;;;13.27;4.00;;;;;;;;;;5073991;28;20297;-80
2022/10/02 01:34:42;;;;;;;15.00;3.63;;;;;;;;;;5074045;28;20219;-78
2022/10/02 01:37:11;;;;;;;9.80;4.13;;;;;;;;;;5073698;28;20214;-79
2022/10/02 01:39:40;;;;;;;14.07;3.93;;;;;;;;;;5073540;28;20206;-79
2022/10/02 01:42:10;;;;;;;14.20;4.57;;;;;;;;;;5073950;28;20257;-80
2022/10/02 01:44:38;;;;;;;12.40;4.57;;;;;;;;;;5074146;28;20254;-79
2022/10/02 01:47:10;;;;;;;13.93;4.43;;;;;;;;;;5074052;28;20655;-79
2022/10/02 01:49:45;;;;;;;11.30;4.10;;;;;;;;;;5073658;28;20317;-79
2022/10/02 01:52:19;;;;;;;12.33;4.60;;;;;;;;;;5073926;28;20190;-79
2022/10/02 01:54:55;;;;;;;14.07;4.53;;;;;;;;;;5073638;28;20186;-79
2022/10/02 01:57:34;;;;;;;15.27;5.27;;;;;;;;;;5074037;28;20206;-79
2022/10/02 02:00:07;;;;;;;12.50;4.57;;;;;;;;;;5073691;28;20651;-78
2022/10/02 02:02:42;;;;;;;13.83;4.93;;;;;;;;;;5091249;28;20202;-79
2022/10/02 02:05:13;;;;;;;15.43;5.17;;;;;;;;;;5093021;28;20185;-79
2022/10/02 02:07:46;;;;;;;16.37;6.03;;;;;;;;;;5093661;28;20196;-79
2022/10/02 02:10:18;;;;;;;17.00;5.93;;;;;;;;;;5093727;28;20288;-79
2022/10/02 02:12:50;;;;;;;15.23;5.80;;;;;;;;;;5093036;28;20253;-79
2022/10/02 02:15:21;;;;;;;17.23;6.30;;;;;;;;;;5094071;28;20597;-80
2022/10/02 02:17:51;;;;;;;16.27;6.77;;;;;;;;;;5093758;28;20239;-79
2022/10/02 02:20:22;;;;;;;15.73;6.87;;;;;;;;;;5093810;28;20201;-79
2022/10/02 02:22:53;;;;;;;13.37;6.77;;;;;;;;;;5093367;28;20253;-79
2022/10/02 02:25:26;;;;;;;17.33;7.93;;;;;;;;;;5093654;28;20233;-79
2022/10/02 02:27:57;;;;;;;17.07;8.00;;;;;;;;;;5088393;28;20249;-78
2022/10/02 02:30:26;;;;;;;20.90;8.40;;;;;;;;;;5073125;28;20240;-79
2022/10/02 02:32:57;;;;;;;16.23;8.50;;;;;;;;;;5072650;28;20352;-79
2022/10/02 02:35:27;;;;;;;18.57;9.80;;;;;;;;;;5073832;28;20190;-80
2022/10/02 02:37:56;;;;;;;19.43;10.03;;;;;;;;;;5073093;28;20202;-80
2022/10/02 02:40:27;;;;;;;22.10;10.90;;;;;;;;;;5072662;28;20249;-79
2022/10/02 02:42:59;;;;;;;22.70;10.50;;;;;;;;;;5073217;28;20250;-79
2022/10/02 02:45:30;;;;;;;24.07;9.67;;;;;;;;;;5072893;28;20283;-79
2022/10/02 02:48:03;;;;;;;21.73;10.47;;;;;;;;;;5072815;28;20229;-80
2022/10/02 02:50:33;;;;;;;15.83;9.20;;;;;;;;;;5072934;28;20752;-78
2022/10/02 02:53:05;;;;;;;20.83;10.23;;;;;;;;;;5072219;28;20226;-79
2022/10/02 02:55:35;;;;;;;17.47;9.43;;;;;;;;;;5072535;28;20186;-79
2022/10/02 02:58:13;;;;;;;21.10;10.30;;;;;;;;;;5079124;28;20213;-79
2022/10/02 03:00:41;;;;;;;20.33;10.50;;;;;;;;;;5093288;28;20213;-79
2022/10/02 03:03:10;;;;;;;22.80;11.73;;;;;;;;;;5092818;28;20337;-79
2022/10/02 03:05:42;;;;;;;18.27;10.60;;;;;;;;;;5083763;28;20202;-79
2022/10/02 03:08:15;;;;;;;22.00;12.73;;;;;;;;;;5072298;28;20234;-79
2022/10/02 03:10:46;;;;;;;25.40;13.43;;;;;;;;;;5073319;28;20690;-80
2022/10/02 03:13:23;;;;;;;23.73;12.83;;;;;;;;;;5073523;28;20257;-79
2022/10/02 03:15:58;;;;;;;25.10;13.60;;;;;;;;;;5073429;28;20596;-80
2022/10/02 03:18:32;;;;;;;24.97;13.30;;;;;;;;;;5077067;28;20182;-79
2022/10/02 03:21:04;;;;;;;21.20;13.50;;;;;;;;;;5077392;28;20289;-79
2022/10/02 03:23:36;;;;;;;24.67;13.43;;;;;;;;;;5087666;28;20249;-79
2022/10/02 03:26:09;;;;;;;21.53;12.70;;;;;;;;;;5096651;28;20237;-80
2022/10/02 03:28:42;;;;;;;22.43;12.40;;;;;;;;;;5096800;28;20698;-80
2022/10/02 03:31:25;;;;;;;22.70;12.77;;;;;;;;;;5096360;28;20316;-79
2022/10/02 03:33:54;;;;;;;20.80;12.87;;;;;;;;;;5096934;28;20222;-78
2022/10/02 03:36:23;;;;;;;21.30;13.60;;;;;;;;;;5096328;28;20662;-78
2022/10/02 03:38:53;;;;;;;24.17;13.60;;;;;;;;;;5096187;28;20202;-79
2022/10/02 03:41:41;;;;;;;24.83;14.50;;;;;;;;;;5096814;28;20551;-80
2022/10/02 03:44:11;;;;;;;23.27;15.67;;;;;;;;;;5096635;28;20245;-79
2022/10/02 03:46:40;;;;;;;27.93;16.77;;;;;;;;;;5096387;28;20263;-79
2022/10/02 03:49:08;;;;;;;28.53;17.93;;;;;;;;;;5096145;28;20233;-78
2022/10/02 03:51:37;;;;;;;29.00;17.67;;;;;;;;;;5095871;28;20740;-80
2022/10/02 03:54:07;;;;;;;25.63;18.27;;;;;;;;;;5096161;28;20285;-80
2022/10/02 03:56:39;;;;;;;27.70;18.20;;;;;;;;;;5096190;28;20182;-80
2022/10/02 03:59:14;;;;;;;27.30;17.80;;;;;;;;;;5095603;28;20247;-79
2022/10/02 04:01:45;;;;;;;28.07;18.20;;;;;;;;;;5091777;28;20658;-80
2022/10/02 04:04:19;;;;;;;23.13;17.60;;;;;;;;;;5094947;28;20590;-79
2022/10/02 04:06:48;;;;;;;26.40;17.93;;;;;;;;;;5075807;28;20210;-79
2022/10/02 04:09:19;;;;;;;35.47;19.20;;;;;;;;;;5075514;28;20268;-80
2022/10/02 04:11:50;;;;;;;29.73;18.67;;;;;;;;;;5075251;28;20211;-79
2022/10/02 04:14:21;;;;;;;30.97;17.47;;;;;;;;;;5075448;28;20246;-80
2022/10/02 04:16:52;;;;;;;28.33;18.30;;;;;;;;;;5075555;28;20226;-79
2022/10/02 04:19:23;;;;;;;28.67;18.70;;;;;;;;;;5076215;28;20264;-78
2022/10/02 04:21:54;;;;;;;25.43;18.70;;;;;;;;;;5075675;28;20221;-80
2022/10/02 04:24:29;;;;;;;30.30;18.43;;;;;;;;;;5081474;28;20268;-81
2022/10/02 04:27:01;;;;;;;29.93;18.60;;;;;;;;;;5095610;28;20228;-80
2022/10/02 04:29:34;;;;;;;30.77;18.93;;;;;;;;;;5094639;28;20190;-79
2022/10/02 04:32:08;;;;;;;31.17;20.23;;;;;;;;;;5094219;28;20699;-79
2022/10/02 04:34:37;;;;;;;34.70;19.03;;;;;;;;;;5078968;28;20226;-79
2022/10/02 04:37:11;;;;;;;30.37;19.00;;;;;;;;;;5075313;28;20199;-79
2022/10/02 04:39:48;;;;;;;28.60;18.67;;;;;;;;;;5074869;28;20182;-78
2022/10/02 04:42:24;;;;;;;30.17;17.97;;;;;;;;;;5074940;28;20289;-78
2022/10/02 04:45:02;;;;;;;27.20;17.30;;;;;;;;;;5074531;28;20225;-78
2022/10/02 04:47:48;;;;;;;31.73;17.87;;;;;;;;;;5074740;28;20226;-78
2022/10/02 04:50:22;;;;;;;24.73;17.53;;;;;;;;;;5045011;28;20276;-78
2022/10/02 04:53:10;;;;;;;34.90;17.53;;;;;;;;;;5074791;28;20226;-78
2022/10/02 04:56:00;;;;;;;29.17;17.43;;;;;;;;;;5075557;28;20701;-78
2022/10/02 04:58:46;;;;;;;28.47;16.57;;;;;;;;;;5070177;28;20823;-78
2022/10/02 05:01:23;;;;;;;25.50;16.57;;;;;;;;;;5074322;28;20214;-79
2022/10/02 05:03:57;;;;;;;26.60;16.37;;;;;;;;;;5074404;28;20248;-78
2022/10/02 05:06:39;;;;;;;27.33;16.33;;;;;;;;;;5074364;28;20202;-79
2022/10/02 05:09:11;;;;;;;27.80;16.23;;;;;;;;;;5074076;28;20284;-78
2022/10/02 05:11:54;;;;;;;25.97;15.40;;;;;;;;;;5074172;28;20246;-78
2022/10/02 05:14:40;;;;;;;27.13;15.87;;;;;;;;;;5072329;28;20267;-79
2022/10/02 05:17:18;;;;;;;26.10;15.50;;;;;;;;;;5074069;28;20267;-78
2022/10/02 05:19:56;;;;;;;25.67;15.73;;;;;;;;;;5074622;28;20233;-78
2022/10/02 05:22:44;;;;;;;29.20;15.43;;;;;;;;;;5088064;28;20252;-77
2022/10/02 05:25:20;;;;;;;26.23;15.13;;;;;;;;;;5074257;28;20186;-78
2022/10/02 05:28:00;;;;;;;29.20;14.80;;;;;;;;;;5074802;28;20251;-78
2022/10/02 05:30:30;;;;;;;26.83;13.87;;;;;;;;;;5089265;28;20190;-78
2022/10/02 05:33:15;;;;;;;24.67;14.20;;;;;;;;;;5095477;28;20640;-79
2022/10/02 05:35:53;;;;;;;26.73;14.20;;;;;;;;;;5094913;28;20190;-78
2022/10/02 05:38:29;;;;;;;25.53;14.00;;;;;;;;;;5094877;28;20635;-78
2022/10/02 05:41:01;;;;;;;23.67;13.43;;;;;;;;;;5095403;28;20674;-79
2022/10/02 05:43:33;;;;;;;23.67;13.80;;;;;;;;;;5095600;28;20217;-78
2022/10/02 05:46:04;;;;;;;24.80;13.63;;;;;;;;;;5094949;28;20243;-78
2022/10/02 05:48:37;;;;;;;24.67;13.50;;;;;;;;;;5094710;28;20342;-78
2022/10/02 05:51:09;;;;;;;24.03;13.17;;;;;;;;;;5094872;28;20233;-78
2022/10/02 05:53:40;;;;;;;26.27;13.17;;;;;;;;;;5094638;28;20257;-77
2022/10/02 05:56:11;;;;;;;20.63;12.40;;;;;;;;;;5093220;28;20273;-78
2022/10/02 05:58:43;;;;;;;21.07;11.97;;;;;;;;;;5094832;28;20186;-78
2022/10/02 06:01:14;;;;;;;19.37;11.57;;;;;;;;;;5095869;28;20680;-78
2022/10/02 06:03:47;;;;;;;25.20;12.37;;;;;;;;;;5095288;28;20226;-79
2022/10/02 06:06:17;;;;;;;18.00;11.37;;;;;;;;;;5094481;28;20235;-78
2022/10/02 06:08:47;;;;;;;21.57;11.67;;;;;;;;;;5095193;28;20198;-78
2022/10/02 06:11:20;;;;;;;19.67;11.30;;;;;;;;;;5094412;28;20213;-78
2022/10/02 06:13:50;;;;;;;17.67;10.13;;;;;;;;;;5091966;28;20640;-78
2022/10/02 06:16:22;;;;;;;20.00;10.27;;;;;;;;;;5094485;28;20651;-78
2022/10/02 06:18:55;;;;;;;17.33;10.37;;;;;;;;;;5094419;28;20254;-77
2022/10/02 06:21:32;;;;;;;21.57;10.73;;;;;;;;;;5087195;28;20233;-78
2022/10/02 06:24:04;;;;;;;19.13;10.23;;;;;;;;;;5074227;28;20309;-77
2022/10/02 06:26:38;;;;;;;20.30;10.50;;;;;;;;;;5073666;28;20183;-78
2022/10/02 06:29:11;;;;;;;20.20;10.63;;;;;;;;;;5073732;28;20190;-78
2022/10/02 06:31:48;;;;;;;20.70;10.90;;;;;;;;;;5073582;28;20226;-78
2022/10/02 06:34:19;;;;;;;17.03;10.73;;;;;;;;;;5073855;28;20691;-78
2022/10/02 06:36:53;;;;;;;15.60;10.53;;;;;;;;;;5088968;28;20266;-78
2022/10/02 06:39:30;;;;;;;23.27;11.17;;;;;;;;;;5094232;28;20226;-78
2022/10/02 06:42:06;;;;;;;18.63;10.60;;;;;;;;;;5093968;28;20221;-78
2022/10/02 06:44:41;;;;;;;19.87;10.50;;;;;;;;;;5094753;28;20330;-79
2022/10/02 06:47:16;;;;;;;18.50;11.00;;;;;;;;;;5094650;28;20190;-78
2022/10/02 06:49:56;;;;;;;15.80;11.37;;;;;;;;;;5092652;28;20272;-78
2022/10/02 06:52:30;;;;;;;19.30;11.13;;;;;;;;;;5093228;28;20727;-77
2022/10/02 06:55:18;;;;;;;19.23;10.70;;;;;;;;;;5076633;28;20289;-77
2022/10/02 06:57:56;;;;;;;16.00;10.40;;;;;;;;;;5078794;28;20550;-77
2022/10/02 07:00:25;;;;;;;20.53;11.30;;;;;;;;;;5079022;28;20256;-77
2022/10/02 07:03:15;;;;;;;18.20;10.70;;;;;;;;;;5076665;28;20218;-77
2022/10/02 07:06:13;;;;;;;19.77;10.17;;;;;;;;;;5047354;28;20238;-77
2022/10/02 07:09:15;;;;;;;18.90;10.37;;;;;;;;;;5014605;28;21084;-77
2022/10/02 07:11:50;;;;;;;17.80;9.70;;;;;;;;;;5034201;28;20250;-77
2022/10/02 07:14:27;;;;;;;18.20;9.80;;;;;;;;;;5034170;28;20302;-77
2022/10/02 07:17:16;;;;;;;15.07;10.20;;;;;;;;;;5064829;28;20198;-77
2022/10/02 07:19:57;;;;;;;19.10;10.97;;;;;;;;;;5080382;28;20199;-77
2022/10/02 07:22:34;;;;;;;14.30;9.50;;;;;;;;;;5076624;28;20214;-77
2022/10/02 07:25:32;;;;;;;22.87;10.93;;;;;;;;;;5076615;28;20206;-77
2022/10/02 07:28:07;;;;;;;19.87;10.50;;;;;;;;;;5081406;28;20202;-77
2022/10/02 07:30:40;;;;;;;18.27;10.10;;;;;;;;;;5093033;28;20193;-77
2022/10/02 07:33:12;;;;;;;19.00;10.63;;;;;;;;;;5096772;28;20322;-77
2022/10/02 07:35:43;;;;;;;17.53;10.17;;;;;;;;;;5078760;28;20248;-77
2022/10/02 07:38:21;;;;;;;20.10;9.70;;;;;;;;;;5076738;28;20242;-77
2022/10/02 07:40:54;;;;;;;16.23;10.07;;;;;;;;;;5076247;28;20300;-77
2022/10/02 07:43:35;;;;;;;19.43;9.77;;;;;;;;;;5076574;28;20302;-77
2022/10/02 07:46:11;;;;;;;19.87;9.80;;;;;;;;;;5076638;28;20209;-77
2022/10/02 07:48:56;;;;;;;18.90;9.97;;;;;;;;;;5091303;28;20197;-77
2022/10/02 07:51:48;;;;;;;20.33;10.10;;;;;;;;;;5093749;28;20221;-76
2022/10/02 07:54:42;;;;;;;18.83;9.83;;;;;;;;;;5076010;28;20604;-77
2022/10/02 07:57:17;;;;;;;17.00;9.37;;;;;;;;;;5075176;28;20230;-77
2022/10/02 07:59:48;;;;;;;20.53;9.03;;;;;;;;;;5076353;28;20209;-77
2022/10/02 08:02:19;;;;;;;17.47;8.70;;;;;;;;;;5075908;28;20256;-77
2022/10/02 08:04:48;;;;;;;17.53;9.23;;;;;;;;;;5076299;28;20230;-77
2022/10/02 08:07:17;;;;;;;15.10;8.70;;;;;;;;;;5075759;28;20297;-77
2022/10/02 08:09:47;;;;;;;16.60;7.67;;;;;;;;;;5075221;28;20277;-76
2022/10/02 08:12:19;;;;;;;14.50;7.33;;;;;;;;;;5080408;28;20650;-77
2022/10/02 08:14:51;;;;;;;17.40;6.93;;;;;;;;;;5091968;28;20308;-77
2022/10/02 08:17:27;;;;;;;15.80;6.87;;;;;;;;;;5080496;28;20663;-77
2022/10/02 08:19:57;;;;;;;20.17;7.53;;;;;;;;;;5078097;28;20230;-77
2022/10/02 08:22:30;;;;;;;13.63;6.67;;;;;;;;;;5090410;28;20244;-77
2022/10/02 08:25:00;;;;;;;13.47;6.33;;;;;;;;;;5088406;28;20660;-78
2022/10/02 08:27:35;;;;;;;16.03;6.30;;;;;;;;;;5086218;28;20200;-77
2022/10/02 08:30:05;;;;;;;13.90;5.83;;;;;;;;;;5096029;28;20622;-77
2022/10/02 08:32:35;;;;;;;16.07;6.43;;;;;;;;;;5095086;28;20619;-77
2022/10/02 08:35:07;;;;;;;9.90;5.50;;;;;;;;;;5095406;28;20245;-77
2022/10/02 08:37:41;;;;;;;12.23;4.70;;;;;;;;;;5094994;28;20230;-77
2022/10/02 08:40:36;;;;;;;14.03;4.93;;;;;;;;;;5094003;28;20205;-77
2022/10/02 08:43:25;;;;;;;11.97;4.07;;;;;;;;;;5088109;28;20218;-77
2022/10/02 08:46:11;;;;;;;11.67;4.13;;;;;;;;;;5095463;28;20225;-77
2022/10/02 08:49:02;;;;;;;9.07;3.50;;;;;;;;;;5095506;28;20198;-77
2022/10/02 08:51:45;;;;;;;13.23;4.00;;;;;;;;;;5096256;28;20190;-77
2022/10/02 08:54:37;;;;;;;13.63;3.90;;;;;;;;;;5086472;28;20226;-77
2022/10/02 08:57:16;;;;;;;10.50;3.63;;;;;;;;;;5082156;28;20241;-77
2022/10/02 08:59:56;;;;;;;11.23;4.00;;;;;;;;;;5095942;28;20634;-77
2022/10/02 09:02:49;;;;;;;8.73;3.17;;;;;;;;;;5077738;28;20244;-76
2022/10/02 09:05:38;;;;;;;10.13;3.60;;;;;;;;;;5084249;28;20604;-77
2022/10/02 09:08:25;;;;;;;13.63;3.83;;;;;;;;;;5095437;28;20607;-78
2022/10/02 09:11:11;;;;;;;8.83;3.23;;;;;;;;;;5076791;28;20667;-77
2022/10/02 09:14:01;;;;;;;8.93;3.27;;;;;;;;;;5063885;28;20233;-76
2022/10/02 09:16:33;;;;;;;9.13;2.93;;;;;;;;;;5088675;28;20190;-77
2022/10/02 09:19:06;;;;;;;11.43;3.23;;;;;;;;;;5094370;28;20190;-76
2022/10/02 09:21:51;;;;;;;7.45;3.00;;;;;;;;;;5091765;28;20232;-77
2022/10/02 09:24:37;;;;;;;11.77;2.97;;;;;;;;;;5075141;28;20264;-78
2022/10/02 09:27:24;;;;;;;8.87;3.03;;;;;;;;;;5087857;28;20216;-77
2022/10/02 09:30:06;;;;;;;7.55;2.78;;;;;;;;;;5094892;28;20631;-78
2022/10/02 09:32:56;;;;;;;11.27;3.05;;;;;;;;;;5094524;28;20262;-79
2022/10/02 09:35:54;;;;;;;8.07;2.70;;;;;;;;;;5069901;28;20284;-78
2022/10/02 09:38:38;;;;;;;10.20;3.03;;;;;;;;;;5090731;28;20229;-76
2022/10/02 09:41:29;;;;;;;7.93;2.63;;;;;;;;;;5077086;28;20198;-77
2022/10/02 09:44:19;;;;;;;7.35;2.78;;;;;;;;;;5096016;28;20602;-76
2022/10/02 09:47:09;;;;;;;8.77;2.80;;;;;;;;;;5094042;28;20590;-76
2022/10/02 09:49:59;;;;;;;10.10;3.03;;;;;;;;;;5097091;28;20230;-76
2022/10/02 09:52:56;;;;;;;8.75;3.00;;;;;;;;;;5087672;28;20245;-76
2022/10/02 09:55:58;;;;;;;9.02;3.00;;;;;;;;;;5097285;28;20566;-76
2022/10/02 09:58:44;;;;;;;8.38;2.60;;;;;;;;;;5035069;28;20231;-76
2022/10/02 10:01:23;;;;;;;7.85;2.85;;;;;;;;;;5031570;28;20242;-76
2022/10/02 10:04:11;;;;;;;8.75;2.88;;;;;;;;;;5072405;28;20346;-76
2022/10/02 10:06:51;;;;;;;14.00;3.00;;;;;;;;;;5084955;28;20199;-76
2022/10/02 10:09:43;;;;;;;9.88;2.35;;;;;;;;;;5095379;28;20683;-76
2022/10/02 10:12:30;;;;;;;8.70;2.92;;;;;;;;;;5098045;28;20250;-76
2022/10/02 10:15:11;;;;;;;12.50;3.10;;;;;;;;;;5084368;28;20284;-76
2022/10/02 10:18:03;;;;;;;11.40;3.25;;;;;;;;;;5077152;28;20206;-77
2022/10/02 10:20:52;;;;;;;10.97;3.20;;;;;;;;;;5076996;28;20198;-76
2022/10/02 10:23:30;;;;;;;11.27;3.80;;;;;;;;;;5085207;28;20237;-76
2022/10/02 10:26:05;;;;;;;7.93;3.17;;;;;;;;;;5075423;28;20239;-76
2022/10/02 10:28:47;;;;;;;11.63;2.90;;;;;;;;;;5091789;28;20286;-76
2022/10/02 10:31:40;;;;;;;6.80;2.80;;;;;;;;;;5093923;28;20263;-76
2022/10/02 10:34:29;;;;;;;7.90;3.07;;;;;;;;;;5079591;28;20226;-76
2022/10/02 10:40:07;;;;;;;6.53;2.67;;;;;;;;;;5080467;28;20229;-76
2022/10/02 10:42:49;;;;;;;10.10;2.77;;;;;;;;;;5079875;28;20214;-76
2022/10/02 10:45:41;;;;;;;8.73;2.80;;;;;;;;;;5078940;28;20233;-77
2022/10/02 10:48:27;;;;;;;9.70;3.30;;;;;;;;;;5090897;28;20205;-76
2022/10/02 10:51:00;;;;;;;7.63;3.15;;;;;;;;;;5088403;28;20659;-76
2022/10/02 10:53:50;;;;;;;10.68;3.00;;;;;;;;;;5090894;28;20249;-76
2022/10/02 10:56:35;;;;;;;9.20;3.00;;;;;;;;;;5081351;28;20241;-76
2022/10/02 10:59:18;;;;;;;11.10;2.83;;;;;;;;;;5079541;28;20592;-76
2022/10/02 11:02:00;;;;;;;8.13;2.65;;;;;;;;;;5086097;28;20217;-76
2022/10/02 11:04:38;;;;;;;6.80;2.55;;;;;;;;;;5078883;28;20281;-76
2022/10/02 11:07:21;;;;;;;5.93;2.72;;;;;;;;;;5084988;28;20683;-76
2022/10/02 11:10:06;;;;;;;7.22;2.72;;;;;;;;;;5078420;28;20224;-76
2022/10/02 11:12:57;;;;;;;10.85;2.97;;;;;;;;;;5079089;28;20217;-76
2022/10/02 11:15:30;;;;;;;8.60;2.80;;;;;;;;;;5081963;28;20310;-76
2022/10/02 11:18:13;;;;;;;7.93;2.67;;;;;;;;;;5093387;28;20284;-78
2022/10/02 11:20:55;;;;;;;10.20;2.80;;;;;;;;;;5092327;28;20202;-77
2022/10/02 11:23:44;;;;;;;12.55;3.30;;;;;;;;;;5078001;28;20218;-78
2022/10/02 11:26:31;;;;;;;14.02;4.07;;;;;;;;;;5080897;28;20233;-77
2022/10/02 11:29:12;;;;;;;11.02;3.22;;;;;;;;;;5086175;28;20702;-77
2022/10/02 11:31:52;;;;;;;6.78;2.78;;;;;;;;;;5082774;28;20210;-76
2022/10/02 11:34:27;;;;;;;7.68;2.65;;;;;;;;;;5091637;28;20261;-76
2022/10/02 11:37:04;;;;;;;8.40;2.90;;;;;;;;;;5090792;28;20229;-76
2022/10/02 11:39:43;;;;;;;9.57;2.80;;;;;;;;;;5092875;28;20670;-76
2022/10/02 11:42:18;;;;;;;7.25;2.20;;;;;;;;;;5092075;28;20278;-76
2022/10/02 11:45:01;;;;;;;5.40;2.00;;;;;;;;;;5079309;28;20221;-76
2022/10/02 11:47:57;;;;;;;4.72;1.90;;;;;;;;;;5079742;28;20209;-76
2022/10/02 11:50:46;;;;;;;5.75;1.70;;;;;;;;;;5074775;28;20613;-76
2022/10/02 11:53:34;;;;;;;6.03;1.90;;;;;;;;;;5078506;28;20221;-76
2022/10/02 11:56:10;;;;;;;4.95;1.70;;;;;;;;;;5094888;28;20198;-76
2022/10/02 11:58:45;;;;;;;5.25;1.95;;;;;;;;;;5093117;28;20289;-77
2022/10/02 12:01:31;;;;;;;4.50;2.25;;;;;;;;;;5089435;28;20231;-76
2022/10/02 12:04:12;;;;;;;5.07;1.88;;;;;;;;;;5091242;28;20250;-76
2022/10/02 12:06:50;;;;;;;5.57;2.13;;;;;;;;;;5078706;28;20248;-77
2022/10/02 12:09:23;;;;;;;6.97;2.15;;;;;;;;;;5077496;28;20701;-76
2022/10/02 12:11:56;;;;;;;6.70;2.50;;;;;;;;;;5079041;28;20202;-76
2022/10/02 12:14:30;;;;;;;9.00;2.78;;;;;;;;;;5082588;28;20280;-76
2022/10/02 12:17:16;;;;;;;8.50;2.50;;;;;;;;;;5084102;28;20276;-77
2022/10/02 12:28:23;;;;;;;2.25;0.95;;;;;;;;;;5078313;28;20203;-76
2022/10/02 12:30:59;;;;;;;3.33;1.15;;;;;;;;;;5078258;28;20206;-76
2022/10/02 12:33:31;;;;;;;2.72;0.93;;;;;;;;;;5078115;28;20624;-76
2022/10/02 12:36:10;;;;;;;2.30;0.90;;;;;;;;;;5078880;28;20226;-76
2022/10/02 12:38:46;;;;;;;2.97;1.17;;;;;;;;;;5079081;28;20285;-76
2022/10/02 12:41:22;;;;;;;2.70;1.02;;;;;;;;;;5077933;28;20266;-76
2022/10/02 12:43:59;;;;;;;2.53;0.80;;;;;;;;;;5078672;28;20275;-76
2022/10/02 12:46:32;;;;;;;2.15;0.95;;;;;;;;;;5078035;28;20187;-76
2022/10/02 12:49:11;;;;;;;4.05;1.48;;;;;;;;;;5098208;28;20214;-76
2022/10/02 12:51:53;;;;;;;3.30;1.30;;;;;;;;;;5088986;28;20218;-76
2022/10/02 12:54:39;;;;;;;4.70;1.38;;;;;;;;;;5098205;28;20702;-77
2022/10/02 12:57:50;;;;;;;4.20;1.27;;;;;;;;;;5088748;28;20224;-76
2022/10/02 13:00:13;;;;;;;3.70;1.40;;;;;;;;;;5092736;28;20210;-77
2022/10/02 13:03:04;;;;;;;4.43;1.35;;;;;;;;;;5086943;28;20197;-76
2022/10/02 13:05:45;;;;;;;4.82;1.50;;;;;;;;;;5088999;28;20225;-75
2022/10/02 13:08:36;;;;;;;4.85;1.30;;;;;;;;;;5088140;28;20286;-76
2022/10/02 13:11:10;;;;;;;3.38;1.40;;;;;;;;;;5083944;28;20224;-76
2022/10/02 13:13:50;;;;;;;4.20;1.42;;;;;;;;;;5095347;28;20217;-76
2022/10/02 13:16:24;;;;;;;7.07;1.70;;;;;;;;;;5093313;28;20217;-76
2022/10/02 13:19:00;;;;;;;5.32;1.65;;;;;;;;;;5085112;28;20222;-76
2022/10/02 13:21:36;;;;;;;5.80;1.30;;;;;;;;;;5077579;28;20285;-76
2022/10/02 13:24:15;;;;;;;5.10;1.58;;;;;;;;;;5089009;28;20229;-76
2022/10/02 13:26:47;;;;;;;4.28;1.60;;;;;;;;;;5092542;28;20225;-76
2022/10/02 13:29:25;;;;;;;5.07;1.60;;;;;;;;;;5096033;28;20198;-77
2022/10/02 13:31:58;;;;;;;6.68;1.88;;;;;;;;;;5096736;28;20629;-76
2022/10/02 13:34:35;;;;;;;3.60;1.80;;;;;;;;;;5088856;28;20782;-76
2022/10/02 13:37:14;;;;;;;4.30;1.42;;;;;;;;;;5078357;28;20198;-76
2022/10/02 13:40:00;;;;;;;3.10;1.50;;;;;;;;;;5082468;28;20601;-76
2022/10/02 13:42:35;;;;;;;6.03;1.70;;;;;;;;;;5098563;28;20231;-76
2022/10/02 13:45:09;;;;;;;4.60;1.83;;;;;;;;;;5088828;28;20212;-76
2022/10/02 13:47:40;;;;;;;7.15;1.85;;;;;;;;;;5085780;28;20233;-76
2022/10/02 13:50:18;;;;;;;5.10;1.73;;;;;;;;;;5084990;28;20217;-76
2022/10/02 13:52:53;;;;;;;6.73;3.13;;;;;;;;;;5085988;28;20657;-76
2022/10/02 13:55:25;;;;;;;5.05;1.88;;;;;;;;;;5084200;28;20334;-76
2022/10/02 13:58:04;;;;;;;6.83;1.80;;;;;;;;;;5091874;28;20233;-76
2022/10/02 14:00:49;;;;;;;6.63;1.75;;;;;;;;;;5089524;28;20244;-77
2022/10/02 14:03:24;;;;;;;5.28;1.88;;;;;;;;;;5084367;28;20237;-76
2022/10/02 14:05:55;;;;;;;5.55;1.92;;;;;;;;;;5084696;28;20233;-77
2022/10/02 14:08:35;;;;;;;6.97;1.50;;;;;;;;;;5078152;28;20699;-76
2022/10/02 14:11:09;;;;;;;7.07;2.15;;;;;;;;;;5077840;28;20199;-76
2022/10/02 14:13:46;;;;;;;6.78;1.50;;;;;;;;;;5079308;28;20275;-77
2022/10/02 14:16:24;;;;;;;6.30;1.98;;;;;;;;;;5078173;28;20206;-76
2022/10/02 14:19:06;;;;;;;5.43;1.95;;;;;;;;;;5085024;28;20205;-76
2022/10/02 14:21:37;;;;;;;4.53;1.90;;;;;;;;;;5080331;28;20656;-76
2022/10/02 14:24:21;;;;;;;9.73;2.05;;;;;;;;;;5089963;28;20304;-76
2022/10/02 14:26:59;;;;;;;4.35;1.70;;;;;;;;;;5084335;28;20643;-77
2022/10/02 14:29:35;;;;;;;5.93;1.92;;;;;;;;;;5089199;28;20202;-76
2022/10/02 14:32:21;;;;;;;5.10;1.80;;;;;;;;;;5076434;28;20714;-76
2022/10/02 14:34:59;;;;;;;6.97;2.13;;;;;;;;;;5080369;28;20238;-78
2022/10/02 14:37:51;;;;;;;5.15;1.85;;;;;;;;;;5090074;28;20213;-77
2022/10/02 14:40:20;;;;;;;5.63;1.83;;;;;;;;;;5077072;28;20256;-77
2022/10/02 14:43:07;;;;;;;6.37;1.80;;;;;;;;;;5076362;28;20395;-78
2022/10/02 14:45:53;;;;;;;3.83;1.60;;;;;;;;;;5073959;28;20190;-77
2022/10/02 14:48:32;;;;;;;6.33;1.70;;;;;;;;;;5074419;28;20202;-78
2022/10/02 14:51:11;;;;;;;7.23;2.10;;;;;;;;;;5072310;28;20706;-78
2022/10/02 14:53:45;;;;;;;8.50;2.17;;;;;;;;;;5085004;28;20961;-78
2022/10/02 14:56:29;;;;;;;5.93;1.87;;;;;;;;;;5086062;28;20293;-78
2022/10/02 14:59:09;;;;;;;10.70;2.10;;;;;;;;;;5079388;28;20729;-78
2022/10/02 15:01:41;;;;;;;5.67;1.63;;;;;;;;;;5075497;28;20202;-78
2022/10/02 15:04:22;;;;;;;6.57;1.83;;;;;;;;;;5071788;28;20261;-78
2022/10/02 15:06:59;;;;;;;7.90;2.03;;;;;;;;;;5072787;28;20198;-78
2022/10/02 15:09:30;;;;;;;6.67;1.90;;;;;;;;;;5071536;28;20202;-78
2022/10/02 15:12:10;;;;;;;7.63;1.77;;;;;;;;;;5077267;28;20241;-78
2022/10/02 15:14:42;;;;;;;7.20;2.33;;;;;;;;;;5083575;28;20268;-78
2022/10/02 15:20:05;;;;;;;7.00;2.10;;;;;;;;;;5078242;28;20198;-77
2022/10/02 15:22:36;;;;;;;7.63;2.10;;;;;;;;;;5079844;28;20242;-78
2022/10/02 15:25:13;;;;;;;5.97;1.90;;;;;;;;;;5084734;28;20293;-77
2022/10/02 15:27:47;;;;;;;7.53;2.60;;;;;;;;;;5078394;28;20309;-78
2022/10/02 15:30:21;;;;;;;7.23;2.43;;;;;;;;;;5078899;28;20205;-78
2022/10/02 15:32:55;;;;;;;8.30;2.30;;;;;;;;;;5083263;28;20261;-78
2022/10/02 15:35:41;;;;;;;7.40;2.50;;;;;;;;;;5080858;28;20232;-78
2022/10/02 15:38:20;;;;;;;8.17;2.50;;;;;;;;;;5079548;28;20293;-78
2022/10/02 15:40:56;;;;;;;9.23;2.60;;;;;;;;;;5075585;28;20210;-77
2022/10/02 15:43:33;;;;;;;10.57;2.67;;;;;;;;;;5074782;28;21042;-77